sensor_id;sensor_type;location;lat;lon;timestamp;P1;durP1;ratioP1;P2;durP2;ratioP2
67930;SDS011;63902;52.000;5.954;2023-09-30T00:00:06;12.23;;;4.13;;
67930;SDS011;63902;52.000;5.954;2023-09-30T00:01:10;10.68;;;3.80;;
67930;SDS011;63902;52.000;5.954;2023-09-30T00:02:11;11.75;;;3.50;;
67930;SDS011;63902;52.000;5.954;2023-09-30T00:03:11;12.50;;;3.55;;
67930;SDS011;63902;52.000;5.954;2023-09-30T00:04:12;7.15;;;3.05;;
67930;SDS011;63902;52.000;5.954;2023-09-30T00:05:12;17.25;;;3.85;;
67930;SDS011;63902;52.000;5.954;2023-09-30T00:06:13;13.02;;;4.10;;
67930;SDS011;63902;52.000;5.954;2023-09-30T00:07:14;11.40;;;3.38;;
67930;SDS011;63902;52.000;5.954;2023-09-30T00:08:14;11.63;;;4.20;;
67930;SDS011;63902;52.000;5.954;2023-09-30T00:09:15;10.50;;;4.13;;
67930;SDS011;63902;52.000;5.954;2023-09-30T00:10:15;7.80;;;3.65;;
67930;SDS011;63902;52.000;5.954;2023-09-30T00:11:16;11.43;;;3.60;;
67930;SDS011;63902;52.000;5.954;2023-09-30T00:12:16;12.85;;;3.97;;
67930;SDS011;63902;52.000;5.954;2023-09-30T00:13:17;17.77;;;3.70;;
67930;SDS011;63902;52.000;5.954;2023-09-30T00:14:17;10.20;;;3.15;;
67930;SDS011;63902;52.000;5.954;2023-09-30T00:15:19;15.75;;;4.22;;
67930;SDS011;63902;52.000;5.954;2023-09-30T00:16:19;16.67;;;5.25;;
67930;SDS011;63902;52.000;5.954;2023-09-30T00:17:20;8.88;;;3.35;;
67930;SDS011;63902;52.000;5.954;2023-09-30T00:18:20;15.85;;;4.25;;
67930;SDS011;63902;52.000;5.954;2023-09-30T00:19:21;8.82;;;4.05;;
67930;SDS011;63902;52.000;5.954;2023-09-30T00:20:21;17.02;;;3.92;;
67930;SDS011;63902;52.000;5.954;2023-09-30T00:21:22;11.35;;;4.90;;
67930;SDS011;63902;52.000;5.954;2023-09-30T00:22:22;14.25;;;5.07;;
67930;SDS011;63902;52.000;5.954;2023-09-30T00:23:23;12.40;;;3.80;;
67930;SDS011;63902;52.000;5.954;2023-09-30T00:24:23;11.05;;;4.30;;
67930;SDS011;63902;52.000;5.954;2023-09-30T00:25:24;9.52;;;3.80;;
67930;SDS011;63902;52.000;5.954;2023-09-30T00:26:24;16.67;;;4.40;;
67930;SDS011;63902;52.000;5.954;2023-09-30T00:27:25;11.40;;;3.55;;
67930;SDS011;63902;52.000;5.954;2023-09-30T00:28:25;7.35;;;3.33;;
67930;SDS011;63902;52.000;5.954;2023-09-30T00:29:26;11.05;;;3.70;;
67930;SDS011;63902;52.000;5.954;2023-09-30T00:30:28;13.82;;;4.72;;
67930;SDS011;63902;52.000;5.954;2023-09-30T00:31:28;11.32;;;4.50;;
67930;SDS011;63902;52.000;5.954;2023-09-30T00:32:29;13.80;;;3.92;;
67930;SDS011;63902;52.000;5.954;2023-09-30T00:33:29;7.72;;;3.75;;
67930;SDS011;63902;52.000;5.954;2023-09-30T00:34:32;9.70;;;4.00;;
67930;SDS011;63902;52.000;5.954;2023-09-30T00:35:32;9.23;;;3.83;;
67930;SDS011;63902;52.000;5.954;2023-09-30T00:36:33;10.68;;;4.00;;
67930;SDS011;63902;52.000;5.954;2023-09-30T00:37:33;13.85;;;4.50;;
67930;SDS011;63902;52.000;5.954;2023-09-30T00:38:34;14.52;;;4.22;;
67930;SDS011;63902;52.000;5.954;2023-09-30T00:39:34;13.73;;;4.43;;
67930;SDS011;63902;52.000;5.954;2023-09-30T00:40:35;19.65;;;4.70;;
67930;SDS011;63902;52.000;5.954;2023-09-30T00:41:36;15.90;;;3.95;;
67930;SDS011;63902;52.000;5.954;2023-09-30T00:42:39;11.45;;;4.20;;
67930;SDS011;63902;52.000;5.954;2023-09-30T00:43:39;13.27;;;4.75;;
67930;SDS011;63902;52.000;5.954;2023-09-30T00:44:40;13.55;;;4.63;;
67930;SDS011;63902;52.000;5.954;2023-09-30T00:45:42;12.85;;;4.32;;
67930;SDS011;63902;52.000;5.954;2023-09-30T00:46:43;16.58;;;4.60;;
67930;SDS011;63902;52.000;5.954;2023-09-30T00:47:44;13.48;;;4.38;;
67930;SDS011;63902;52.000;5.954;2023-09-30T00:48:45;12.70;;;4.10;;
67930;SDS011;63902;52.000;5.954;2023-09-30T00:49:46;11.20;;;3.95;;
67930;SDS011;63902;52.000;5.954;2023-09-30T00:50:46;13.25;;;4.25;;
67930;SDS011;63902;52.000;5.954;2023-09-30T00:51:47;10.80;;;4.50;;
67930;SDS011;63902;52.000;5.954;2023-09-30T00:52:49;11.77;;;4.88;;
67930;SDS011;63902;52.000;5.954;2023-09-30T00:53:50;10.02;;;4.15;;
67930;SDS011;63902;52.000;5.954;2023-09-30T00:54:51;12.63;;;4.47;;
67930;SDS011;63902;52.000;5.954;2023-09-30T00:55:53;12.63;;;4.80;;
67930;SDS011;63902;52.000;5.954;2023-09-30T00:56:55;11.82;;;3.95;;
67930;SDS011;63902;52.000;5.954;2023-09-30T00:57:57;10.00;;;4.25;;
67930;SDS011;63902;52.000;5.954;2023-09-30T00:58:57;14.00;;;4.80;;
67930;SDS011;63902;52.000;5.954;2023-09-30T00:59:59;10.60;;;4.22;;
67930;SDS011;63902;52.000;5.954;2023-09-30T01:01:01;11.88;;;3.83;;
67930;SDS011;63902;52.000;5.954;2023-09-30T01:02:02;12.82;;;4.18;;
67930;SDS011;63902;52.000;5.954;2023-09-30T01:03:03;11.43;;;3.75;;
67930;SDS011;63902;52.000;5.954;2023-09-30T01:04:04;11.07;;;4.70;;
67930;SDS011;63902;52.000;5.954;2023-09-30T01:05:06;14.02;;;3.90;;
67930;SDS011;63902;52.000;5.954;2023-09-30T01:06:06;12.93;;;4.05;;
67930;SDS011;63902;52.000;5.954;2023-09-30T01:07:07;8.68;;;3.70;;
67930;SDS011;63902;52.000;5.954;2023-09-30T01:08:07;12.15;;;3.88;;
67930;SDS011;63902;52.000;5.954;2023-09-30T01:09:08;12.05;;;4.22;;
67930;SDS011;63902;52.000;5.954;2023-09-30T01:10:08;13.23;;;4.15;;
67930;SDS011;63902;52.000;5.954;2023-09-30T01:11:09;9.43;;;3.70;;
67930;SDS011;63902;52.000;5.954;2023-09-30T01:12:10;13.05;;;3.92;;
67930;SDS011;63902;52.000;5.954;2023-09-30T01:13:11;12.32;;;3.97;;
67930;SDS011;63902;52.000;5.954;2023-09-30T01:14:24;9.90;;;3.85;;
67930;SDS011;63902;52.000;5.954;2023-09-30T01:15:25;15.30;;;3.97;;
67930;SDS011;63902;52.000;5.954;2023-09-30T01:16:29;13.55;;;4.60;;
67930;SDS011;63902;52.000;5.954;2023-09-30T01:17:30;17.17;;;4.25;;
67930;SDS011;63902;52.000;5.954;2023-09-30T01:18:31;17.10;;;3.90;;
67930;SDS011;63902;52.000;5.954;2023-09-30T01:19:31;11.90;;;3.80;;
67930;SDS011;63902;52.000;5.954;2023-09-30T01:20:32;15.27;;;3.95;;
67930;SDS011;63902;52.000;5.954;2023-09-30T01:21:35;12.85;;;4.03;;
67930;SDS011;63902;52.000;5.954;2023-09-30T01:22:35;8.20;;;3.83;;
67930;SDS011;63902;52.000;5.954;2023-09-30T01:23:36;10.52;;;3.72;;
67930;SDS011;63902;52.000;5.954;2023-09-30T01:24:39;10.65;;;3.38;;
67930;SDS011;63902;52.000;5.954;2023-09-30T01:25:40;13.40;;;4.53;;
67930;SDS011;63902;52.000;5.954;2023-09-30T01:26:41;17.42;;;4.38;;
67930;SDS011;63902;52.000;5.954;2023-09-30T01:27:41;10.23;;;4.00;;
67930;SDS011;63902;52.000;5.954;2023-09-30T01:28:42;9.82;;;4.32;;
67930;SDS011;63902;52.000;5.954;2023-09-30T01:29:42;13.77;;;4.10;;
67930;SDS011;63902;52.000;5.954;2023-09-30T01:30:43;10.50;;;3.85;;
67930;SDS011;63902;52.000;5.954;2023-09-30T01:31:43;16.63;;;4.10;;
67930;SDS011;63902;52.000;5.954;2023-09-30T01:32:44;16.25;;;4.20;;
67930;SDS011;63902;52.000;5.954;2023-09-30T01:33:44;13.90;;;4.22;;
67930;SDS011;63902;52.000;5.954;2023-09-30T01:34:45;10.65;;;3.97;;
67930;SDS011;63902;52.000;5.954;2023-09-30T01:35:45;9.07;;;3.03;;
67930;SDS011;63902;52.000;5.954;2023-09-30T01:36:47;11.57;;;4.90;;
67930;SDS011;63902;52.000;5.954;2023-09-30T01:37:48;10.15;;;3.65;;
67930;SDS011;63902;52.000;5.954;2023-09-30T01:38:48;15.00;;;5.28;;
67930;SDS011;63902;52.000;5.954;2023-09-30T01:39:49;13.80;;;4.45;;
67930;SDS011;63902;52.000;5.954;2023-09-30T01:40:49;11.05;;;4.03;;
67930;SDS011;63902;52.000;5.954;2023-09-30T01:41:50;14.38;;;4.25;;
67930;SDS011;63902;52.000;5.954;2023-09-30T01:42:50;13.82;;;3.50;;
67930;SDS011;63902;52.000;5.954;2023-09-30T01:43:51;10.10;;;3.72;;
67930;SDS011;63902;52.000;5.954;2023-09-30T01:44:51;8.15;;;3.88;;
67930;SDS011;63902;52.000;5.954;2023-09-30T01:45:52;14.15;;;4.10;;
67930;SDS011;63902;52.000;5.954;2023-09-30T01:46:52;12.82;;;4.32;;
67930;SDS011;63902;52.000;5.954;2023-09-30T01:47:53;10.65;;;4.68;;
67930;SDS011;63902;52.000;5.954;2023-09-30T01:48:53;12.63;;;4.25;;
67930;SDS011;63902;52.000;5.954;2023-09-30T01:49:54;14.20;;;3.28;;
67930;SDS011;63902;52.000;5.954;2023-09-30T01:50:54;10.35;;;4.18;;
67930;SDS011;63902;52.000;5.954;2023-09-30T01:51:56;11.20;;;3.80;;
67930;SDS011;63902;52.000;5.954;2023-09-30T01:52:57;10.40;;;4.15;;
67930;SDS011;63902;52.000;5.954;2023-09-30T01:53:57;8.13;;;4.15;;
67930;SDS011;63902;52.000;5.954;2023-09-30T01:54:58;12.25;;;4.05;;
67930;SDS011;63902;52.000;5.954;2023-09-30T01:55:58;7.15;;;3.60;;
67930;SDS011;63902;52.000;5.954;2023-09-30T01:56:59;11.13;;;3.85;;
67930;SDS011;63902;52.000;5.954;2023-09-30T01:57:59;12.98;;;4.57;;
67930;SDS011;63902;52.000;5.954;2023-09-30T01:59:00;8.93;;;4.35;;
67930;SDS011;63902;52.000;5.954;2023-09-30T02:00:00;14.52;;;4.05;;
67930;SDS011;63902;52.000;5.954;2023-09-30T02:01:02;11.70;;;4.07;;
67930;SDS011;63902;52.000;5.954;2023-09-30T02:02:02;15.43;;;4.40;;
67930;SDS011;63902;52.000;5.954;2023-09-30T02:03:03;12.77;;;4.15;;
67930;SDS011;63902;52.000;5.954;2023-09-30T02:04:04;12.15;;;3.65;;
67930;SDS011;63902;52.000;5.954;2023-09-30T02:05:05;11.82;;;4.30;;
67930;SDS011;63902;52.000;5.954;2023-09-30T02:06:06;9.77;;;3.72;;
67930;SDS011;63902;52.000;5.954;2023-09-30T02:07:08;16.48;;;3.92;;
67930;SDS011;63902;52.000;5.954;2023-09-30T02:08:08;13.38;;;4.55;;
67930;SDS011;63902;52.000;5.954;2023-09-30T02:09:09;10.85;;;4.13;;
67930;SDS011;63902;52.000;5.954;2023-09-30T02:10:09;12.07;;;4.15;;
67930;SDS011;63902;52.000;5.954;2023-09-30T02:11:10;8.15;;;3.88;;
67930;SDS011;63902;52.000;5.954;2023-09-30T02:12:10;12.85;;;4.70;;
67930;SDS011;63902;52.000;5.954;2023-09-30T02:13:11;9.38;;;3.92;;
67930;SDS011;63902;52.000;5.954;2023-09-30T02:14:11;10.32;;;4.72;;
67930;SDS011;63902;52.000;5.954;2023-09-30T02:15:12;10.40;;;4.57;;
67930;SDS011;63902;52.000;5.954;2023-09-30T02:16:13;11.35;;;4.40;;
67930;SDS011;63902;52.000;5.954;2023-09-30T02:17:13;13.38;;;4.75;;
67930;SDS011;63902;52.000;5.954;2023-09-30T02:18:14;10.43;;;4.57;;
67930;SDS011;63902;52.000;5.954;2023-09-30T02:19:14;9.27;;;4.28;;
67930;SDS011;63902;52.000;5.954;2023-09-30T02:20:15;14.40;;;5.82;;
67930;SDS011;63902;52.000;5.954;2023-09-30T02:21:16;12.07;;;4.85;;
67930;SDS011;63902;52.000;5.954;2023-09-30T02:22:18;29.33;;;5.63;;
67930;SDS011;63902;52.000;5.954;2023-09-30T02:23:18;13.35;;;4.75;;
67930;SDS011;63902;52.000;5.954;2023-09-30T02:24:19;9.00;;;3.88;;
67930;SDS011;63902;52.000;5.954;2023-09-30T02:25:19;14.32;;;4.38;;
67930;SDS011;63902;52.000;5.954;2023-09-30T02:26:20;13.02;;;5.05;;
67930;SDS011;63902;52.000;5.954;2023-09-30T02:27:20;10.48;;;4.18;;
67930;SDS011;63902;52.000;5.954;2023-09-30T02:28:21;13.15;;;4.63;;
67930;SDS011;63902;52.000;5.954;2023-09-30T02:29:21;11.90;;;4.50;;
67930;SDS011;63902;52.000;5.954;2023-09-30T02:30:22;16.42;;;4.55;;
67930;SDS011;63902;52.000;5.954;2023-09-30T02:31:22;12.27;;;4.85;;
67930;SDS011;63902;52.000;5.954;2023-09-30T02:32:23;13.35;;;5.00;;
67930;SDS011;63902;52.000;5.954;2023-09-30T02:33:23;10.88;;;5.20;;
67930;SDS011;63902;52.000;5.954;2023-09-30T02:34:24;16.20;;;4.60;;
67930;SDS011;63902;52.000;5.954;2023-09-30T02:35:24;10.65;;;4.38;;
67930;SDS011;63902;52.000;5.954;2023-09-30T02:36:25;12.00;;;4.72;;
67930;SDS011;63902;52.000;5.954;2023-09-30T02:37:27;13.07;;;3.83;;
67930;SDS011;63902;52.000;5.954;2023-09-30T02:38:27;11.85;;;5.07;;
67930;SDS011;63902;52.000;5.954;2023-09-30T02:39:28;14.93;;;5.70;;
67930;SDS011;63902;52.000;5.954;2023-09-30T02:40:28;11.68;;;4.70;;
67930;SDS011;63902;52.000;5.954;2023-09-30T02:41:29;17.65;;;4.95;;
67930;SDS011;63902;52.000;5.954;2023-09-30T02:42:29;11.77;;;5.47;;
67930;SDS011;63902;52.000;5.954;2023-09-30T02:43:30;14.02;;;4.70;;
67930;SDS011;63902;52.000;5.954;2023-09-30T02:44:30;14.32;;;5.18;;
67930;SDS011;63902;52.000;5.954;2023-09-30T02:45:31;8.52;;;4.38;;
67930;SDS011;63902;52.000;5.954;2023-09-30T02:46:32;15.10;;;5.10;;
67930;SDS011;63902;52.000;5.954;2023-09-30T02:47:32;12.75;;;4.72;;
67930;SDS011;63902;52.000;5.954;2023-09-30T02:48:34;12.30;;;4.50;;
67930;SDS011;63902;52.000;5.954;2023-09-30T02:49:34;10.77;;;4.70;;
67930;SDS011;63902;52.000;5.954;2023-09-30T02:50:35;10.63;;;5.13;;
67930;SDS011;63902;52.000;5.954;2023-09-30T02:51:35;13.02;;;5.45;;
67930;SDS011;63902;52.000;5.954;2023-09-30T02:52:37;8.38;;;4.00;;
67930;SDS011;63902;52.000;5.954;2023-09-30T02:53:38;10.65;;;4.97;;
67930;SDS011;63902;52.000;5.954;2023-09-30T02:54:38;13.27;;;4.78;;
67930;SDS011;63902;52.000;5.954;2023-09-30T02:55:39;8.98;;;4.55;;
67930;SDS011;63902;52.000;5.954;2023-09-30T02:56:39;13.00;;;4.75;;
67930;SDS011;63902;52.000;5.954;2023-09-30T02:57:40;12.95;;;5.15;;
67930;SDS011;63902;52.000;5.954;2023-09-30T02:58:40;16.08;;;4.82;;
67930;SDS011;63902;52.000;5.954;2023-09-30T02:59:41;12.38;;;4.95;;
67930;SDS011;63902;52.000;5.954;2023-09-30T03:00:41;12.82;;;4.93;;
67930;SDS011;63902;52.000;5.954;2023-09-30T03:01:42;13.25;;;4.63;;
67930;SDS011;63902;52.000;5.954;2023-09-30T03:02:42;12.32;;;4.60;;
67930;SDS011;63902;52.000;5.954;2023-09-30T03:03:43;11.93;;;5.00;;
67930;SDS011;63902;52.000;5.954;2023-09-30T03:04:44;14.48;;;4.47;;
67930;SDS011;63902;52.000;5.954;2023-09-30T03:05:44;10.77;;;4.68;;
67930;SDS011;63902;52.000;5.954;2023-09-30T03:06:45;9.00;;;4.53;;
67930;SDS011;63902;52.000;5.954;2023-09-30T03:07:47;13.90;;;4.65;;
67930;SDS011;63902;52.000;5.954;2023-09-30T03:08:48;15.15;;;4.82;;
67930;SDS011;63902;52.000;5.954;2023-09-30T03:09:49;9.93;;;5.05;;
67930;SDS011;63902;52.000;5.954;2023-09-30T03:10:49;12.82;;;4.40;;
67930;SDS011;63902;52.000;5.954;2023-09-30T03:11:50;12.15;;;4.47;;
67930;SDS011;63902;52.000;5.954;2023-09-30T03:12:50;9.15;;;4.28;;
67930;SDS011;63902;52.000;5.954;2023-09-30T03:13:51;9.82;;;4.70;;
67930;SDS011;63902;52.000;5.954;2023-09-30T03:14:51;8.73;;;4.47;;
67930;SDS011;63902;52.000;5.954;2023-09-30T03:15:52;12.27;;;5.53;;
67930;SDS011;63902;52.000;5.954;2023-09-30T03:16:52;10.25;;;4.72;;
67930;SDS011;63902;52.000;5.954;2023-09-30T03:17:53;12.55;;;4.78;;
67930;SDS011;63902;52.000;5.954;2023-09-30T03:18:53;15.95;;;4.65;;
67930;SDS011;63902;52.000;5.954;2023-09-30T03:19:54;19.50;;;5.43;;
67930;SDS011;63902;52.000;5.954;2023-09-30T03:20:58;13.70;;;4.80;;
67930;SDS011;63902;52.000;5.954;2023-09-30T03:21:59;14.65;;;4.72;;
67930;SDS011;63902;52.000;5.954;2023-09-30T03:23:01;12.65;;;4.60;;
67930;SDS011;63902;52.000;5.954;2023-09-30T03:24:02;11.05;;;4.88;;
67930;SDS011;63902;52.000;5.954;2023-09-30T03:25:02;13.95;;;5.53;;
67930;SDS011;63902;52.000;5.954;2023-09-30T03:26:03;9.95;;;4.72;;
67930;SDS011;63902;52.000;5.954;2023-09-30T03:27:04;17.73;;;4.95;;
67930;SDS011;63902;52.000;5.954;2023-09-30T03:28:04;10.10;;;4.78;;
67930;SDS011;63902;52.000;5.954;2023-09-30T03:29:05;12.10;;;4.72;;
67930;SDS011;63902;52.000;5.954;2023-09-30T03:30:06;15.70;;;5.20;;
67930;SDS011;63902;52.000;5.954;2023-09-30T03:31:08;9.63;;;4.32;;
67930;SDS011;63902;52.000;5.954;2023-09-30T03:32:08;9.32;;;4.72;;
67930;SDS011;63902;52.000;5.954;2023-09-30T03:33:09;12.13;;;4.95;;
67930;SDS011;63902;52.000;5.954;2023-09-30T03:34:09;11.30;;;5.07;;
67930;SDS011;63902;52.000;5.954;2023-09-30T03:35:10;13.77;;;4.85;;
67930;SDS011;63902;52.000;5.954;2023-09-30T03:36:11;10.07;;;5.43;;
67930;SDS011;63902;52.000;5.954;2023-09-30T03:37:12;10.82;;;4.95;;
67930;SDS011;63902;52.000;5.954;2023-09-30T03:38:14;9.27;;;5.10;;
67930;SDS011;63902;52.000;5.954;2023-09-30T03:39:15;8.85;;;4.40;;
67930;SDS011;63902;52.000;5.954;2023-09-30T03:40:15;15.23;;;4.97;;
67930;SDS011;63902;52.000;5.954;2023-09-30T03:41:16;12.75;;;5.05;;
67930;SDS011;63902;52.000;5.954;2023-09-30T03:42:16;8.07;;;4.80;;
67930;SDS011;63902;52.000;5.954;2023-09-30T03:43:17;13.43;;;4.80;;
67930;SDS011;63902;52.000;5.954;2023-09-30T03:44:17;12.55;;;5.13;;
67930;SDS011;63902;52.000;5.954;2023-09-30T03:45:18;12.10;;;4.80;;
67930;SDS011;63902;52.000;5.954;2023-09-30T03:46:18;10.88;;;5.03;;
67930;SDS011;63902;52.000;5.954;2023-09-30T03:47:19;11.75;;;4.97;;
67930;SDS011;63902;52.000;5.954;2023-09-30T03:48:19;9.93;;;4.93;;
67930;SDS011;63902;52.000;5.954;2023-09-30T03:49:20;10.15;;;4.80;;
67930;SDS011;63902;52.000;5.954;2023-09-30T03:50:20;11.90;;;4.90;;
67930;SDS011;63902;52.000;5.954;2023-09-30T03:51:21;11.18;;;4.80;;
67930;SDS011;63902;52.000;5.954;2023-09-30T03:52:21;17.85;;;5.32;;
67930;SDS011;63902;52.000;5.954;2023-09-30T03:53:23;12.13;;;4.80;;
67930;SDS011;63902;52.000;5.954;2023-09-30T03:54:24;14.23;;;4.88;;
67930;SDS011;63902;52.000;5.954;2023-09-30T03:55:24;11.60;;;5.03;;
67930;SDS011;63902;52.000;5.954;2023-09-30T03:56:25;8.30;;;4.72;;
67930;SDS011;63902;52.000;5.954;2023-09-30T03:57:25;15.38;;;4.93;;
67930;SDS011;63902;52.000;5.954;2023-09-30T03:58:26;11.55;;;5.07;;
67930;SDS011;63902;52.000;5.954;2023-09-30T03:59:26;13.40;;;4.82;;
67930;SDS011;63902;52.000;5.954;2023-09-30T04:00:27;11.40;;;4.95;;
67930;SDS011;63902;52.000;5.954;2023-09-30T04:01:27;13.23;;;5.32;;
67930;SDS011;63902;52.000;5.954;2023-09-30T04:02:28;10.60;;;5.00;;
67930;SDS011;63902;52.000;5.954;2023-09-30T04:03:28;13.13;;;5.25;;
67930;SDS011;63902;52.000;5.954;2023-09-30T04:04:29;9.60;;;4.85;;
67930;SDS011;63902;52.000;5.954;2023-09-30T04:05:29;10.20;;;4.80;;
67930;SDS011;63902;52.000;5.954;2023-09-30T04:06:30;9.85;;;5.22;;
67930;SDS011;63902;52.000;5.954;2023-09-30T04:07:30;12.57;;;5.30;;
67930;SDS011;63902;52.000;5.954;2023-09-30T04:08:32;12.80;;;5.28;;
67930;SDS011;63902;52.000;5.954;2023-09-30T04:09:33;9.93;;;4.78;;
67930;SDS011;63902;52.000;5.954;2023-09-30T04:10:33;11.35;;;4.50;;
67930;SDS011;63902;52.000;5.954;2023-09-30T04:11:34;19.63;;;5.82;;
67930;SDS011;63902;52.000;5.954;2023-09-30T04:12:34;12.00;;;5.65;;
67930;SDS011;63902;52.000;5.954;2023-09-30T04:13:35;19.58;;;5.22;;
67930;SDS011;63902;52.000;5.954;2023-09-30T04:14:35;14.77;;;5.40;;
67930;SDS011;63902;52.000;5.954;2023-09-30T04:15:36;12.45;;;5.53;;
67930;SDS011;63902;52.000;5.954;2023-09-30T04:16:36;13.88;;;6.15;;
67930;SDS011;63902;52.000;5.954;2023-09-30T04:17:37;17.42;;;5.95;;
67930;SDS011;63902;52.000;5.954;2023-09-30T04:18:38;17.52;;;6.53;;
67930;SDS011;63902;52.000;5.954;2023-09-30T04:19:38;11.63;;;6.15;;
67930;SDS011;63902;52.000;5.954;2023-09-30T04:20:39;13.60;;;6.00;;
67930;SDS011;63902;52.000;5.954;2023-09-30T04:21:39;16.25;;;6.03;;
67930;SDS011;63902;52.000;5.954;2023-09-30T04:22:40;13.63;;;5.75;;
67930;SDS011;63902;52.000;5.954;2023-09-30T04:23:41;11.32;;;5.82;;
67930;SDS011;63902;52.000;5.954;2023-09-30T04:24:42;13.45;;;5.70;;
67930;SDS011;63902;52.000;5.954;2023-09-30T04:25:42;13.52;;;6.97;;
67930;SDS011;63902;52.000;5.954;2023-09-30T04:26:43;15.00;;;6.05;;
67930;SDS011;63902;52.000;5.954;2023-09-30T04:27:44;9.73;;;5.50;;
67930;SDS011;63902;52.000;5.954;2023-09-30T04:28:44;13.70;;;6.22;;
67930;SDS011;63902;52.000;5.954;2023-09-30T04:29:45;12.60;;;7.15;;
67930;SDS011;63902;52.000;5.954;2023-09-30T04:30:46;14.50;;;6.45;;
67930;SDS011;63902;52.000;5.954;2023-09-30T04:31:47;13.40;;;6.30;;
67930;SDS011;63902;52.000;5.954;2023-09-30T04:32:48;12.63;;;5.43;;
67930;SDS011;63902;52.000;5.954;2023-09-30T04:33:48;11.23;;;5.93;;
67930;SDS011;63902;52.000;5.954;2023-09-30T04:34:49;13.73;;;5.68;;
67930;SDS011;63902;52.000;5.954;2023-09-30T04:35:49;9.50;;;5.68;;
67930;SDS011;63902;52.000;5.954;2023-09-30T04:36:50;16.15;;;5.63;;
67930;SDS011;63902;52.000;5.954;2023-09-30T04:37:50;17.02;;;6.60;;
67930;SDS011;63902;52.000;5.954;2023-09-30T04:38:52;14.63;;;6.20;;
67930;SDS011;63902;52.000;5.954;2023-09-30T04:39:53;16.05;;;5.75;;
67930;SDS011;63902;52.000;5.954;2023-09-30T04:40:53;19.27;;;6.20;;
67930;SDS011;63902;52.000;5.954;2023-09-30T04:41:54;10.77;;;6.10;;
67930;SDS011;63902;52.000;5.954;2023-09-30T04:42:54;12.77;;;6.60;;
67930;SDS011;63902;52.000;5.954;2023-09-30T04:43:55;11.50;;;6.13;;
67930;SDS011;63902;52.000;5.954;2023-09-30T04:44:55;11.55;;;5.88;;
67930;SDS011;63902;52.000;5.954;2023-09-30T04:45:56;15.35;;;6.57;;
67930;SDS011;63902;52.000;5.954;2023-09-30T04:46:56;13.32;;;5.45;;
67930;SDS011;63902;52.000;5.954;2023-09-30T04:47:57;9.77;;;6.30;;
67930;SDS011;63902;52.000;5.954;2023-09-30T04:48:57;16.95;;;8.75;;
67930;SDS011;63902;52.000;5.954;2023-09-30T04:49:58;12.23;;;6.13;;
67930;SDS011;63902;52.000;5.954;2023-09-30T04:50:58;17.48;;;6.55;;
67930;SDS011;63902;52.000;5.954;2023-09-30T04:51:59;12.93;;;5.88;;
67930;SDS011;63902;52.000;5.954;2023-09-30T04:52:59;15.88;;;5.95;;
67930;SDS011;63902;52.000;5.954;2023-09-30T04:54:01;11.85;;;6.20;;
67930;SDS011;63902;52.000;5.954;2023-09-30T04:55:02;18.08;;;5.97;;
67930;SDS011;63902;52.000;5.954;2023-09-30T04:56:03;10.55;;;5.72;;
67930;SDS011;63902;52.000;5.954;2023-09-30T04:57:04;9.95;;;5.72;;
67930;SDS011;63902;52.000;5.954;2023-09-30T04:58:04;15.07;;;6.57;;
67930;SDS011;63902;52.000;5.954;2023-09-30T04:59:05;11.15;;;6.13;;
67930;SDS011;63902;52.000;5.954;2023-09-30T05:00:06;14.95;;;6.00;;
67930;SDS011;63902;52.000;5.954;2023-09-30T05:01:08;10.57;;;6.57;;
67930;SDS011;63902;52.000;5.954;2023-09-30T05:02:08;13.93;;;6.38;;
67930;SDS011;63902;52.000;5.954;2023-09-30T05:03:09;13.30;;;6.03;;
67930;SDS011;63902;52.000;5.954;2023-09-30T05:04:09;13.10;;;6.57;;
67930;SDS011;63902;52.000;5.954;2023-09-30T05:05:10;14.68;;;6.18;;
67930;SDS011;63902;52.000;5.954;2023-09-30T05:06:11;14.13;;;7.30;;
67930;SDS011;63902;52.000;5.954;2023-09-30T05:07:11;11.63;;;6.35;;
67930;SDS011;63902;52.000;5.954;2023-09-30T05:08:12;12.23;;;5.82;;
67930;SDS011;63902;52.000;5.954;2023-09-30T05:09:13;13.95;;;6.13;;
67930;SDS011;63902;52.000;5.954;2023-09-30T05:10:14;11.70;;;6.35;;
67930;SDS011;63902;52.000;5.954;2023-09-30T05:11:15;12.80;;;6.25;;
67930;SDS011;63902;52.000;5.954;2023-09-30T05:12:16;15.02;;;6.13;;
67930;SDS011;63902;52.000;5.954;2023-09-30T05:13:16;12.85;;;6.50;;
67930;SDS011;63902;52.000;5.954;2023-09-30T05:14:17;13.23;;;6.32;;
67930;SDS011;63902;52.000;5.954;2023-09-30T05:15:17;14.23;;;6.60;;
67930;SDS011;63902;52.000;5.954;2023-09-30T05:16:18;17.15;;;6.22;;
67930;SDS011;63902;52.000;5.954;2023-09-30T05:17:18;14.35;;;6.45;;
67930;SDS011;63902;52.000;5.954;2023-09-30T05:18:21;17.92;;;6.93;;
67930;SDS011;63902;52.000;5.954;2023-09-30T05:19:21;10.73;;;6.60;;
67930;SDS011;63902;52.000;5.954;2023-09-30T05:20:22;14.13;;;6.88;;
67930;SDS011;63902;52.000;5.954;2023-09-30T05:21:22;11.13;;;6.10;;
67930;SDS011;63902;52.000;5.954;2023-09-30T05:22:23;13.75;;;6.40;;
67930;SDS011;63902;52.000;5.954;2023-09-30T05:23:24;13.68;;;6.60;;
67930;SDS011;63902;52.000;5.954;2023-09-30T05:24:26;9.20;;;5.78;;
67930;SDS011;63902;52.000;5.954;2023-09-30T05:25:26;12.88;;;6.20;;
67930;SDS011;63902;52.000;5.954;2023-09-30T05:26:27;15.00;;;6.65;;
67930;SDS011;63902;52.000;5.954;2023-09-30T05:27:27;13.93;;;6.88;;
67930;SDS011;63902;52.000;5.954;2023-09-30T05:28:28;12.57;;;6.68;;
67930;SDS011;63902;52.000;5.954;2023-09-30T05:29:28;11.48;;;6.43;;
67930;SDS011;63902;52.000;5.954;2023-09-30T05:30:29;15.93;;;7.22;;
67930;SDS011;63902;52.000;5.954;2023-09-30T05:31:30;13.35;;;5.88;;
67930;SDS011;63902;52.000;5.954;2023-09-30T05:32:30;14.80;;;6.78;;
67930;SDS011;63902;52.000;5.954;2023-09-30T05:33:31;15.48;;;6.65;;
67930;SDS011;63902;52.000;5.954;2023-09-30T05:34:31;11.32;;;6.78;;
67930;SDS011;63902;52.000;5.954;2023-09-30T05:35:32;14.45;;;7.75;;
67930;SDS011;63902;52.000;5.954;2023-09-30T05:36:32;11.65;;;6.65;;
67930;SDS011;63902;52.000;5.954;2023-09-30T05:37:33;12.30;;;6.85;;
67930;SDS011;63902;52.000;5.954;2023-09-30T05:38:33;14.43;;;6.68;;
67930;SDS011;63902;52.000;5.954;2023-09-30T05:39:35;15.07;;;7.38;;
67930;SDS011;63902;52.000;5.954;2023-09-30T05:40:36;17.77;;;8.18;;
67930;SDS011;63902;52.000;5.954;2023-09-30T05:41:37;16.38;;;6.40;;
67930;SDS011;63902;52.000;5.954;2023-09-30T05:42:38;13.07;;;6.28;;
67930;SDS011;63902;52.000;5.954;2023-09-30T05:43:38;12.68;;;6.47;;
67930;SDS011;63902;52.000;5.954;2023-09-30T05:44:39;17.70;;;6.88;;
67930;SDS011;63902;52.000;5.954;2023-09-30T05:45:39;14.13;;;6.47;;
67930;SDS011;63902;52.000;5.954;2023-09-30T05:46:40;10.20;;;5.90;;
67930;SDS011;63902;52.000;5.954;2023-09-30T05:47:40;12.82;;;6.60;;
67930;SDS011;63902;52.000;5.954;2023-09-30T05:48:41;13.93;;;6.82;;
67930;SDS011;63902;52.000;5.954;2023-09-30T05:49:42;12.82;;;6.68;;
67930;SDS011;63902;52.000;5.954;2023-09-30T05:50:42;17.17;;;6.15;;
67930;SDS011;63902;52.000;5.954;2023-09-30T05:51:43;13.85;;;7.20;;
67930;SDS011;63902;52.000;5.954;2023-09-30T05:52:43;11.93;;;6.43;;
67930;SDS011;63902;52.000;5.954;2023-09-30T05:53:44;16.40;;;6.57;;
67930;SDS011;63902;52.000;5.954;2023-09-30T05:54:46;13.20;;;6.47;;
67930;SDS011;63902;52.000;5.954;2023-09-30T05:55:46;15.07;;;6.90;;
67930;SDS011;63902;52.000;5.954;2023-09-30T05:56:47;15.43;;;6.95;;
67930;SDS011;63902;52.000;5.954;2023-09-30T05:57:47;13.13;;;7.35;;
67930;SDS011;63902;52.000;5.954;2023-09-30T05:58:48;11.38;;;6.53;;
67930;SDS011;63902;52.000;5.954;2023-09-30T05:59:48;10.40;;;6.53;;
67930;SDS011;63902;52.000;5.954;2023-09-30T06:00:49;14.70;;;6.70;;